LFGJ/DLE METAR and TAF weather

Enter ICAO airport designator
Station Type Date Time Source
LFGJ METAR 2020/04/05 23:00 UTC NOAA

LFGJ 052300Z AUTO 18010KT CAVOK 12/02 Q1019 NOSIG


Station Type Date Time Source
LFGJ Decoded METAR 2020/04/05 23:00 UTC NOAA

Dole Tavaux, France (LFGJ) 47-02-34N 005-26-06E
Apr 05, 2020 - 07:00 PM EDT / 2020.04.05 2300 UTC
Wind: from the S (180 degrees) at 12 MPH (10 KT):0
Visibility: greater than 7 mile(s):0
Temperature: 53 F (12 C)
Dew Point: 35 F (2 C)
Relative Humidity: 50%
Pressure (altimeter): 30.09 in. Hg (1019 hPa)
ob: LFGJ 052300Z AUTO 18010KT CAVOK 12/02 Q1019 NOSIG
cycle: 23

Station Type Date Time Source
LFGJ TAF 2012/05/01 21:57 UTC NOAA

TAF
AMD TAF
AMD LFGJ 010355Z 3021/0106 18008KT 9999 FEW023 SCT035 BKN050
TEMPO 0102/0103 4000 -SHRA BR FEW012TCU BKN015
BECMG 0103/0104 VRB03KT 0200 FG VV///

Example: see airport list